Londerzeel, Belgium
Current Conditions -  °F | °C
As of 3:20 PM on Tuesday 21 Oct 2014 (Local Time) from EBBR Reporting Station
Rain Showers Rain Showers  
Wind Chill: 11°   Ceiling: 3500
Heat Index: 11°   Visibility: 6mi
Dew Point:   Wind: 20mph
Humidity: 88%   Direction: 290°WNW
Pressure: 29.59"   Gusts: NA
Location:  51°N, 4.3°E
Report Text: EBBR 211320Z 29017KT 9999 -SHRA FEW010 SCT016 BKN035 11/09 Q1002 TEMPO 4000 SHRA
Loading
Personal Weather Stations






























Interactive Weather Map
Tropical Storm Tracking
New forecast layout! Learn more

10-Day Weather Forecast

Advertisements
Track Severe Weather on mobile